DAUL/LOO METAR and TAF weather

Enter ICAO airport designator
Station Type Date Time Source
DAUL METAR 2018/07/21 04:00 UTC NOAA

DAUL 210400Z 00000KT 8000 FEW030 28/08 Q1015


Station Type Date Time Source
DAUL Decoded METAR 2018/07/21 04:00 UTC NOAA

Laghouat, Algeria (DAUL) 33-46N 002-56E 765M
Jul 21, 2018 - 12:00 AM EDT / 2018.07.21 0400 UTC
Wind: Calm:0
Visibility: 4 mile(s):0
Sky conditions: mostly clear
Temperature: 82 F (28 C)
Dew Point: 46 F (8 C)
Relative Humidity: 28%
Pressure (altimeter): 29.97 in. Hg (1015 hPa)
ob: DAUL 210400Z 00000KT 8000 FEW030 28/08 Q1015
cycle: 4

Station Type Date Time Source
DAUL TAF 2017/11/09 18:03 UTC NOAA

TAF DAUL 091700Z 0918/1009 02012KT 9999 SCT030 SCT100 PROB40
TEMPO 0918/0924 35020G30KT 4000 -TSRA FEW030CB


Example: see airport list